KBWD

Brownwood Regional Airport

Brownwood, Texas, USA
METAR KBWD 230815Z AUTO 15007KT 10SM FEW015 BKN020 OVC042 22/18 A3000 RMK AO2
Observed Flight Rules
May-23 @ 08:15 UTC (33 minutes ago) Marginal Visual Flight Rules
Wind Visibility Clouds
150° at 7 knots 10 miles
  • Few at 1,500' AGL
  • Broken at 2,000' AGL
  • Overcast at 4,200' AGL
Temperatures Readings
Current 22°C / 72°F
Dewpoint 18°C / 64°F
Humidity 78%
Altimeter 30" Hg
Pressure 1016 hPa
Elevation 423
METAR KBWD 230815Z AUTO 15007KT 10SM FEW015 BKN020 OVC042 22/18 A3000 RMK AO2
Observed Flight Rules
May-23 @ 08:15 UTC
(33 minutes ago)
MVFR
Wind Visibility
150° at 7 knots 10 miles
Clouds
  • Few at 1,500' AGL
  • Broken at 2,000' AGL
  • Overcast at 4,200' AGL
Temperature Dewpoint
22°C / 72°F 18°C / 64°F
Humidity Altimeter Pressure
78% 30" Hg 1016 hPa